sensor_id;sensor_type;location;lat;lon;timestamp;P1;durP1;ratioP1;P2;durP2;ratioP2
6376;SDS011;3221;48.858;10.128;2023-08-07T00:02:25;2.13;;;1.30;;
6376;SDS011;3221;48.858;10.128;2023-08-07T00:04:52;2.33;;;1.53;;
6376;SDS011;3221;48.858;10.128;2023-08-07T00:07:19;3.87;;;1.80;;
6376;SDS011;3221;48.858;10.128;2023-08-07T00:09:46;2.87;;;1.60;;
6376;SDS011;3221;48.858;10.128;2023-08-07T00:12:13;2.03;;;1.50;;
6376;SDS011;3221;48.858;10.128;2023-08-07T00:14:40;1.57;;;1.47;;
6376;SDS011;3221;48.858;10.128;2023-08-07T00:17:07;2.27;;;1.63;;
6376;SDS011;3221;48.858;10.128;2023-08-07T00:19:34;2.33;;;1.40;;
6376;SDS011;3221;48.858;10.128;2023-08-07T00:22:01;3.90;;;1.67;;
6376;SDS011;3221;48.858;10.128;2023-08-07T00:24:28;1.40;;;1.30;;
6376;SDS011;3221;48.858;10.128;2023-08-07T00:26:55;1.80;;;1.70;;
6376;SDS011;3221;48.858;10.128;2023-08-07T00:29:23;1.83;;;1.60;;
6376;SDS011;3221;48.858;10.128;2023-08-07T00:31:50;3.03;;;1.67;;
6376;SDS011;3221;48.858;10.128;2023-08-07T00:34:17;2.93;;;1.90;;
6376;SDS011;3221;48.858;10.128;2023-08-07T00:36:44;3.13;;;2.17;;
6376;SDS011;3221;48.858;10.128;2023-08-07T00:39:11;2.33;;;2.00;;
6376;SDS011;3221;48.858;10.128;2023-08-07T00:41:39;2.37;;;1.80;;
6376;SDS011;3221;48.858;10.128;2023-08-07T00:44:06;3.67;;;1.77;;
6376;SDS011;3221;48.858;10.128;2023-08-07T00:46:33;3.57;;;2.10;;
6376;SDS011;3221;48.858;10.128;2023-08-07T00:49:01;2.47;;;2.00;;
6376;SDS011;3221;48.858;10.128;2023-08-07T00:51:29;2.97;;;1.70;;
6376;SDS011;3221;48.858;10.128;2023-08-07T00:53:56;4.37;;;2.20;;
6376;SDS011;3221;48.858;10.128;2023-08-07T00:56:24;3.80;;;2.00;;
6376;SDS011;3221;48.858;10.128;2023-08-07T00:58:52;2.97;;;1.90;;
6376;SDS011;3221;48.858;10.128;2023-08-07T01:01:19;3.90;;;2.40;;
6376;SDS011;3221;48.858;10.128;2023-08-07T01:03:47;3.43;;;2.10;;
6376;SDS011;3221;48.858;10.128;2023-08-07T01:06:14;5.77;;;2.37;;
6376;SDS011;3221;48.858;10.128;2023-08-07T01:08:41;3.00;;;2.20;;
6376;SDS011;3221;48.858;10.128;2023-08-07T01:11:17;3.90;;;1.87;;
6376;SDS011;3221;48.858;10.128;2023-08-07T01:16:18;3.97;;;2.00;;
6376;SDS011;3221;48.858;10.128;2023-08-07T01:18:52;3.17;;;1.90;;
6376;SDS011;3221;48.858;10.128;2023-08-07T01:21:21;3.07;;;1.80;;
6376;SDS011;3221;48.858;10.128;2023-08-07T01:23:48;2.77;;;1.90;;
6376;SDS011;3221;48.858;10.128;2023-08-07T01:26:15;1.97;;;1.70;;
6376;SDS011;3221;48.858;10.128;2023-08-07T01:31:38;2.53;;;2.00;;
6376;SDS011;3221;48.858;10.128;2023-08-07T01:34:08;5.03;;;2.10;;
6376;SDS011;3221;48.858;10.128;2023-08-07T01:36:38;3.20;;;1.90;;
6376;SDS011;3221;48.858;10.128;2023-08-07T01:39:06;3.80;;;2.43;;
6376;SDS011;3221;48.858;10.128;2023-08-07T01:41:34;5.17;;;2.70;;
6376;SDS011;3221;48.858;10.128;2023-08-07T01:44:02;4.03;;;2.47;;
6376;SDS011;3221;48.858;10.128;2023-08-07T01:46:31;3.13;;;2.20;;
6376;SDS011;3221;48.858;10.128;2023-08-07T01:48:58;5.17;;;2.80;;
6376;SDS011;3221;48.858;10.128;2023-08-07T01:51:25;4.77;;;2.40;;
6376;SDS011;3221;48.858;10.128;2023-08-07T01:53:52;3.80;;;2.63;;
6376;SDS011;3221;48.858;10.128;2023-08-07T01:56:19;4.70;;;3.20;;
6376;SDS011;3221;48.858;10.128;2023-08-07T01:58:46;5.03;;;3.23;;
6376;SDS011;3221;48.858;10.128;2023-08-07T02:01:13;5.13;;;2.70;;
6376;SDS011;3221;48.858;10.128;2023-08-07T02:03:40;3.97;;;2.57;;
6376;SDS011;3221;48.858;10.128;2023-08-07T02:06:07;3.40;;;2.40;;
6376;SDS011;3221;48.858;10.128;2023-08-07T02:08:34;2.90;;;2.30;;
6376;SDS011;3221;48.858;10.128;2023-08-07T02:11:02;2.73;;;2.30;;
6376;SDS011;3221;48.858;10.128;2023-08-07T02:13:29;3.37;;;2.50;;
6376;SDS011;3221;48.858;10.128;2023-08-07T02:15:56;3.83;;;2.47;;
6376;SDS011;3221;48.858;10.128;2023-08-07T02:18:23;3.57;;;2.30;;
6376;SDS011;3221;48.858;10.128;2023-08-07T02:20:50;2.93;;;2.37;;
6376;SDS011;3221;48.858;10.128;2023-08-07T02:23:17;2.97;;;2.30;;
6376;SDS011;3221;48.858;10.128;2023-08-07T02:25:44;3.03;;;2.10;;
6376;SDS011;3221;48.858;10.128;2023-08-07T02:28:13;3.60;;;2.43;;
6376;SDS011;3221;48.858;10.128;2023-08-07T02:30:40;2.67;;;2.30;;
6376;SDS011;3221;48.858;10.128;2023-08-07T02:33:07;2.97;;;2.27;;
6376;SDS011;3221;48.858;10.128;2023-08-07T02:35:34;3.83;;;2.53;;
6376;SDS011;3221;48.858;10.128;2023-08-07T02:38:01;4.53;;;2.67;;
6376;SDS011;3221;48.858;10.128;2023-08-07T02:40:28;3.10;;;2.60;;
6376;SDS011;3221;48.858;10.128;2023-08-07T02:42:56;2.70;;;2.10;;
6376;SDS011;3221;48.858;10.128;2023-08-07T02:45:23;4.17;;;2.40;;
6376;SDS011;3221;48.858;10.128;2023-08-07T02:47:50;3.17;;;2.27;;
6376;SDS011;3221;48.858;10.128;2023-08-07T02:50:17;3.87;;;2.40;;
6376;SDS011;3221;48.858;10.128;2023-08-07T02:52:44;3.43;;;2.60;;
6376;SDS011;3221;48.858;10.128;2023-08-07T02:55:11;4.07;;;2.37;;
6376;SDS011;3221;48.858;10.128;2023-08-07T02:57:38;3.37;;;2.47;;
6376;SDS011;3221;48.858;10.128;2023-08-07T03:00:05;4.13;;;2.47;;
6376;SDS011;3221;48.858;10.128;2023-08-07T03:02:33;5.20;;;2.40;;
6376;SDS011;3221;48.858;10.128;2023-08-07T03:05:00;2.77;;;2.43;;
6376;SDS011;3221;48.858;10.128;2023-08-07T03:07:27;4.37;;;2.13;;
6376;SDS011;3221;48.858;10.128;2023-08-07T03:09:54;3.47;;;2.07;;
6376;SDS011;3221;48.858;10.128;2023-08-07T03:12:21;5.40;;;2.70;;
6376;SDS011;3221;48.858;10.128;2023-08-07T03:14:48;4.00;;;2.70;;
6376;SDS011;3221;48.858;10.128;2023-08-07T03:17:14;3.40;;;2.20;;
6376;SDS011;3221;48.858;10.128;2023-08-07T03:19:42;4.13;;;2.40;;
6376;SDS011;3221;48.858;10.128;2023-08-07T03:22:11;2.90;;;2.17;;
6376;SDS011;3221;48.858;10.128;2023-08-07T03:24:38;4.10;;;2.20;;
6376;SDS011;3221;48.858;10.128;2023-08-07T03:27:05;4.83;;;2.37;;
6376;SDS011;3221;48.858;10.128;2023-08-07T03:29:32;5.07;;;2.30;;
6376;SDS011;3221;48.858;10.128;2023-08-07T03:31:59;5.60;;;2.60;;
6376;SDS011;3221;48.858;10.128;2023-08-07T03:34:26;6.10;;;3.00;;
6376;SDS011;3221;48.858;10.128;2023-08-07T03:36:53;5.17;;;3.00;;
6376;SDS011;3221;48.858;10.128;2023-08-07T03:39:20;4.97;;;3.30;;
6376;SDS011;3221;48.858;10.128;2023-08-07T03:41:47;6.03;;;3.10;;
6376;SDS011;3221;48.858;10.128;2023-08-07T03:44:16;5.57;;;2.90;;
6376;SDS011;3221;48.858;10.128;2023-08-07T03:46:43;4.60;;;2.70;;
6376;SDS011;3221;48.858;10.128;2023-08-07T03:49:10;5.80;;;2.83;;
6376;SDS011;3221;48.858;10.128;2023-08-07T03:51:37;4.63;;;2.50;;
6376;SDS011;3221;48.858;10.128;2023-08-07T03:54:04;3.77;;;2.43;;
6376;SDS011;3221;48.858;10.128;2023-08-07T03:56:32;3.33;;;2.70;;
6376;SDS011;3221;48.858;10.128;2023-08-07T03:59:03;4.50;;;2.43;;
6376;SDS011;3221;48.858;10.128;2023-08-07T04:01:30;6.00;;;2.40;;
6376;SDS011;3221;48.858;10.128;2023-08-07T04:03:58;6.13;;;2.60;;
6376;SDS011;3221;48.858;10.128;2023-08-07T04:06:25;4.63;;;2.57;;
6376;SDS011;3221;48.858;10.128;2023-08-07T04:08:53;4.00;;;2.60;;
6376;SDS011;3221;48.858;10.128;2023-08-07T04:11:20;4.43;;;2.90;;
6376;SDS011;3221;48.858;10.128;2023-08-07T04:13:48;5.13;;;2.90;;
6376;SDS011;3221;48.858;10.128;2023-08-07T04:16:16;5.30;;;3.13;;
6376;SDS011;3221;48.858;10.128;2023-08-07T04:18:43;4.87;;;2.87;;
6376;SDS011;3221;48.858;10.128;2023-08-07T04:21:10;5.60;;;2.60;;
6376;SDS011;3221;48.858;10.128;2023-08-07T04:23:37;4.83;;;2.77;;
6376;SDS011;3221;48.858;10.128;2023-08-07T04:26:08;4.37;;;2.37;;
6376;SDS011;3221;48.858;10.128;2023-08-07T04:28:35;4.87;;;2.70;;
6376;SDS011;3221;48.858;10.128;2023-08-07T04:31:02;5.43;;;3.03;;
6376;SDS011;3221;48.858;10.128;2023-08-07T04:33:29;3.43;;;2.80;;
6376;SDS011;3221;48.858;10.128;2023-08-07T04:35:56;4.00;;;2.53;;
6376;SDS011;3221;48.858;10.128;2023-08-07T04:38:23;5.37;;;3.37;;
6376;SDS011;3221;48.858;10.128;2023-08-07T04:40:50;5.87;;;3.73;;
6376;SDS011;3221;48.858;10.128;2023-08-07T04:43:18;6.50;;;3.60;;
6376;SDS011;3221;48.858;10.128;2023-08-07T04:45:48;3.80;;;2.30;;
6376;SDS011;3221;48.858;10.128;2023-08-07T04:48:15;5.60;;;2.90;;
6376;SDS011;3221;48.858;10.128;2023-08-07T04:50:44;5.33;;;2.67;;
6376;SDS011;3221;48.858;10.128;2023-08-07T04:53:11;4.93;;;2.77;;
6376;SDS011;3221;48.858;10.128;2023-08-07T04:55:38;4.93;;;3.30;;
6376;SDS011;3221;48.858;10.128;2023-08-07T04:58:05;4.87;;;2.80;;
6376;SDS011;3221;48.858;10.128;2023-08-07T05:00:32;5.37;;;3.13;;
6376;SDS011;3221;48.858;10.128;2023-08-07T05:03:00;4.77;;;3.30;;
6376;SDS011;3221;48.858;10.128;2023-08-07T05:05:28;5.07;;;3.20;;
6376;SDS011;3221;48.858;10.128;2023-08-07T05:07:55;5.40;;;3.13;;
6376;SDS011;3221;48.858;10.128;2023-08-07T05:10:22;6.80;;;3.17;;
6376;SDS011;3221;48.858;10.128;2023-08-07T05:12:49;7.57;;;3.60;;
6376;SDS011;3221;48.858;10.128;2023-08-07T05:15:22;4.87;;;3.10;;
6376;SDS011;3221;48.858;10.128;2023-08-07T05:17:49;6.33;;;2.80;;
6376;SDS011;3221;48.858;10.128;2023-08-07T05:20:17;3.73;;;2.50;;
6376;SDS011;3221;48.858;10.128;2023-08-07T05:22:44;5.40;;;2.60;;
6376;SDS011;3221;48.858;10.128;2023-08-07T05:25:11;4.43;;;2.93;;
6376;SDS011;3221;48.858;10.128;2023-08-07T05:27:42;4.00;;;3.00;;
6376;SDS011;3221;48.858;10.128;2023-08-07T05:30:10;4.63;;;2.63;;
6376;SDS011;3221;48.858;10.128;2023-08-07T05:32:38;5.17;;;3.00;;
6376;SDS011;3221;48.858;10.128;2023-08-07T05:35:05;3.77;;;3.03;;
6376;SDS011;3221;48.858;10.128;2023-08-07T05:37:33;6.07;;;3.20;;
6376;SDS011;3221;48.858;10.128;2023-08-07T05:40:01;4.30;;;3.33;;
6376;SDS011;3221;48.858;10.128;2023-08-07T05:42:28;5.60;;;3.33;;
6376;SDS011;3221;48.858;10.128;2023-08-07T05:44:57;6.97;;;3.90;;
6376;SDS011;3221;48.858;10.128;2023-08-07T05:47:25;5.57;;;3.60;;
6376;SDS011;3221;48.858;10.128;2023-08-07T05:49:52;4.23;;;3.30;;
6376;SDS011;3221;48.858;10.128;2023-08-07T05:52:19;5.80;;;3.40;;
6376;SDS011;3221;48.858;10.128;2023-08-07T05:54:46;4.00;;;3.60;;
6376;SDS011;3221;48.858;10.128;2023-08-07T05:57:14;5.50;;;3.70;;
6376;SDS011;3221;48.858;10.128;2023-08-07T05:59:41;5.87;;;3.20;;
6376;SDS011;3221;48.858;10.128;2023-08-07T06:02:08;5.53;;;3.60;;
6376;SDS011;3221;48.858;10.128;2023-08-07T06:04:37;5.10;;;2.70;;
6376;SDS011;3221;48.858;10.128;2023-08-07T06:07:05;3.27;;;2.70;;
6376;SDS011;3221;48.858;10.128;2023-08-07T06:09:35;5.57;;;2.60;;
6376;SDS011;3221;48.858;10.128;2023-08-07T06:12:02;2.70;;;2.40;;
6376;SDS011;3221;48.858;10.128;2023-08-07T06:14:29;5.00;;;2.60;;
6376;SDS011;3221;48.858;10.128;2023-08-07T06:16:56;5.27;;;3.40;;
6376;SDS011;3221;48.858;10.128;2023-08-07T06:19:24;5.87;;;3.73;;
6376;SDS011;3221;48.858;10.128;2023-08-07T06:21:58;7.37;;;4.43;;
6376;SDS011;3221;48.858;10.128;2023-08-07T06:24:26;5.33;;;3.70;;
6376;SDS011;3221;48.858;10.128;2023-08-07T06:26:53;6.17;;;3.60;;
6376;SDS011;3221;48.858;10.128;2023-08-07T06:29:20;3.90;;;3.10;;
6376;SDS011;3221;48.858;10.128;2023-08-07T06:31:47;7.07;;;3.43;;
6376;SDS011;3221;48.858;10.128;2023-08-07T06:34:14;5.17;;;2.97;;
6376;SDS011;3221;48.858;10.128;2023-08-07T06:36:41;4.97;;;2.93;;
6376;SDS011;3221;48.858;10.128;2023-08-07T06:39:08;3.87;;;3.13;;
6376;SDS011;3221;48.858;10.128;2023-08-07T06:41:35;4.87;;;2.67;;
6376;SDS011;3221;48.858;10.128;2023-08-07T06:44:02;5.27;;;2.90;;
6376;SDS011;3221;48.858;10.128;2023-08-07T06:46:30;4.87;;;2.50;;
6376;SDS011;3221;48.858;10.128;2023-08-07T06:48:57;3.83;;;2.50;;
6376;SDS011;3221;48.858;10.128;2023-08-07T06:51:24;3.60;;;2.90;;
6376;SDS011;3221;48.858;10.128;2023-08-07T06:53:51;5.40;;;3.30;;
6376;SDS011;3221;48.858;10.128;2023-08-07T06:56:18;4.53;;;3.03;;
6376;SDS011;3221;48.858;10.128;2023-08-07T06:58:45;6.50;;;3.30;;
6376;SDS011;3221;48.858;10.128;2023-08-07T07:01:12;4.43;;;3.33;;
6376;SDS011;3221;48.858;10.128;2023-08-07T07:03:39;5.17;;;3.60;;
6376;SDS011;3221;48.858;10.128;2023-08-07T07:06:06;4.93;;;3.50;;
6376;SDS011;3221;48.858;10.128;2023-08-07T07:08:33;4.70;;;2.93;;
6376;SDS011;3221;48.858;10.128;2023-08-07T07:11:00;6.73;;;3.60;;
6376;SDS011;3221;48.858;10.128;2023-08-07T07:13:27;4.57;;;3.00;;
6376;SDS011;3221;48.858;10.128;2023-08-07T07:15:54;4.87;;;3.03;;
6376;SDS011;3221;48.858;10.128;2023-08-07T07:18:22;5.40;;;3.83;;
6376;SDS011;3221;48.858;10.128;2023-08-07T07:20:56;5.10;;;3.50;;
6376;SDS011;3221;48.858;10.128;2023-08-07T07:23:24;5.43;;;3.97;;
6376;SDS011;3221;48.858;10.128;2023-08-07T07:25:51;7.07;;;3.50;;
6376;SDS011;3221;48.858;10.128;2023-08-07T07:28:18;4.60;;;3.17;;
6376;SDS011;3221;48.858;10.128;2023-08-07T07:30:45;6.40;;;3.30;;
6376;SDS011;3221;48.858;10.128;2023-08-07T07:33:12;4.33;;;3.30;;
6376;SDS011;3221;48.858;10.128;2023-08-07T07:35:40;6.77;;;3.00;;
6376;SDS011;3221;48.858;10.128;2023-08-07T07:38:07;3.33;;;2.60;;
6376;SDS011;3221;48.858;10.128;2023-08-07T07:40:34;4.93;;;2.77;;
6376;SDS011;3221;48.858;10.128;2023-08-07T07:43:02;3.50;;;2.70;;
6376;SDS011;3221;48.858;10.128;2023-08-07T07:45:29;4.20;;;3.00;;
6376;SDS011;3221;48.858;10.128;2023-08-07T07:47:56;4.43;;;2.93;;
6376;SDS011;3221;48.858;10.128;2023-08-07T07:50:23;4.80;;;3.10;;
6376;SDS011;3221;48.858;10.128;2023-08-07T07:52:50;3.60;;;2.73;;
6376;SDS011;3221;48.858;10.128;2023-08-07T07:55:17;4.60;;;2.73;;
6376;SDS011;3221;48.858;10.128;2023-08-07T07:57:44;3.10;;;2.70;;
6376;SDS011;3221;48.858;10.128;2023-08-07T08:00:12;3.77;;;2.70;;
6376;SDS011;3221;48.858;10.128;2023-08-07T08:02:39;5.10;;;2.80;;
6376;SDS011;3221;48.858;10.128;2023-08-07T08:05:09;4.37;;;2.63;;
6376;SDS011;3221;48.858;10.128;2023-08-07T08:07:38;5.80;;;2.80;;
6376;SDS011;3221;48.858;10.128;2023-08-07T08:10:09;2.97;;;2.70;;
6376;SDS011;3221;48.858;10.128;2023-08-07T08:12:36;5.20;;;2.60;;
6376;SDS011;3221;48.858;10.128;2023-08-07T08:15:03;5.47;;;2.50;;
6376;SDS011;3221;48.858;10.128;2023-08-07T08:17:31;3.20;;;2.33;;
6376;SDS011;3221;48.858;10.128;2023-08-07T08:19:58;3.30;;;2.37;;
6376;SDS011;3221;48.858;10.128;2023-08-07T08:22:25;5.73;;;2.63;;
6376;SDS011;3221;48.858;10.128;2023-08-07T08:24:52;3.07;;;2.03;;
6376;SDS011;3221;48.858;10.128;2023-08-07T08:27:19;6.13;;;2.60;;
6376;SDS011;3221;48.858;10.128;2023-08-07T08:29:47;3.03;;;2.20;;
6376;SDS011;3221;48.858;10.128;2023-08-07T08:32:14;4.27;;;2.57;;
6376;SDS011;3221;48.858;10.128;2023-08-07T08:34:41;3.63;;;2.40;;
6376;SDS011;3221;48.858;10.128;2023-08-07T08:37:08;5.83;;;2.93;;
6376;SDS011;3221;48.858;10.128;2023-08-07T08:39:36;4.30;;;2.70;;
6376;SDS011;3221;48.858;10.128;2023-08-07T08:42:03;3.63;;;2.30;;
6376;SDS011;3221;48.858;10.128;2023-08-07T08:44:32;4.23;;;1.97;;
6376;SDS011;3221;48.858;10.128;2023-08-07T08:47:05;6.57;;;2.43;;
6376;SDS011;3221;48.858;10.128;2023-08-07T08:49:36;5.60;;;2.03;;
6376;SDS011;3221;48.858;10.128;2023-08-07T08:52:09;5.97;;;2.13;;
6376;SDS011;3221;48.858;10.128;2023-08-07T08:54:36;7.07;;;2.70;;
6376;SDS011;3221;48.858;10.128;2023-08-07T08:57:04;4.00;;;2.50;;
6376;SDS011;3221;48.858;10.128;2023-08-07T08:59:32;5.37;;;2.57;;
6376;SDS011;3221;48.858;10.128;2023-08-07T09:02:00;5.30;;;2.60;;
6376;SDS011;3221;48.858;10.128;2023-08-07T09:04:27;5.77;;;2.10;;
6376;SDS011;3221;48.858;10.128;2023-08-07T09:06:54;3.10;;;2.10;;
6376;SDS011;3221;48.858;10.128;2023-08-07T09:09:22;3.43;;;2.23;;
6376;SDS011;3221;48.858;10.128;2023-08-07T09:11:50;3.67;;;2.50;;
6376;SDS011;3221;48.858;10.128;2023-08-07T09:14:20;4.33;;;2.43;;
6376;SDS011;3221;48.858;10.128;2023-08-07T09:16:52;4.07;;;2.77;;
6376;SDS011;3221;48.858;10.128;2023-08-07T09:19:21;3.37;;;2.60;;
6376;SDS011;3221;48.858;10.128;2023-08-07T09:21:47;6.57;;;2.60;;
6376;SDS011;3221;48.858;10.128;2023-08-07T09:24:14;3.57;;;2.63;;
6376;SDS011;3221;48.858;10.128;2023-08-07T09:26:47;7.13;;;3.43;;
6376;SDS011;3221;48.858;10.128;2023-08-07T09:29:17;5.43;;;3.20;;
6376;SDS011;3221;48.858;10.128;2023-08-07T09:31:44;4.23;;;3.07;;
6376;SDS011;3221;48.858;10.128;2023-08-07T09:34:14;3.73;;;2.43;;
6376;SDS011;3221;48.858;10.128;2023-08-07T09:36:44;5.07;;;2.43;;
6376;SDS011;3221;48.858;10.128;2023-08-07T09:39:11;4.37;;;2.53;;
6376;SDS011;3221;48.858;10.128;2023-08-07T09:41:38;2.60;;;2.40;;
6376;SDS011;3221;48.858;10.128;2023-08-07T09:44:06;4.33;;;2.50;;
6376;SDS011;3221;48.858;10.128;2023-08-07T09:46:41;3.50;;;2.70;;
6376;SDS011;3221;48.858;10.128;2023-08-07T09:49:10;3.10;;;2.47;;
6376;SDS011;3221;48.858;10.128;2023-08-07T09:51:44;3.93;;;2.40;;
6376;SDS011;3221;48.858;10.128;2023-08-07T09:54:12;3.17;;;2.20;;
6376;SDS011;3221;48.858;10.128;2023-08-07T09:56:39;6.07;;;2.10;;
6376;SDS011;3221;48.858;10.128;2023-08-07T09:59:07;3.00;;;2.20;;
6376;SDS011;3221;48.858;10.128;2023-08-07T10:01:37;5.13;;;2.20;;
6376;SDS011;3221;48.858;10.128;2023-08-07T10:04:06;2.67;;;2.07;;
6376;SDS011;3221;48.858;10.128;2023-08-07T10:06:34;4.53;;;2.13;;
6376;SDS011;3221;48.858;10.128;2023-08-07T10:09:01;3.17;;;1.90;;
6376;SDS011;3221;48.858;10.128;2023-08-07T10:11:30;3.43;;;2.00;;
6376;SDS011;3221;48.858;10.128;2023-08-07T10:13:57;2.93;;;2.30;;
6376;SDS011;3221;48.858;10.128;2023-08-07T10:16:25;4.27;;;2.20;;
6376;SDS011;3221;48.858;10.128;2023-08-07T10:18:56;3.93;;;2.10;;
6376;SDS011;3221;48.858;10.128;2023-08-07T10:21:23;2.83;;;2.00;;
6376;SDS011;3221;48.858;10.128;2023-08-07T10:23:52;4.27;;;2.50;;
6376;SDS011;3221;48.858;10.128;2023-08-07T10:26:21;4.47;;;2.40;;
6376;SDS011;3221;48.858;10.128;2023-08-07T10:28:50;3.13;;;2.10;;
6376;SDS011;3221;48.858;10.128;2023-08-07T10:31:20;2.80;;;2.03;;
6376;SDS011;3221;48.858;10.128;2023-08-07T10:33:49;3.50;;;1.80;;
6376;SDS011;3221;48.858;10.128;2023-08-07T10:36:17;3.93;;;1.90;;
6376;SDS011;3221;48.858;10.128;2023-08-07T10:38:46;2.60;;;1.90;;
6376;SDS011;3221;48.858;10.128;2023-08-07T10:41:16;2.67;;;1.73;;
6376;SDS011;3221;48.858;10.128;2023-08-07T10:43:45;2.93;;;2.33;;
6376;SDS011;3221;48.858;10.128;2023-08-07T10:46:15;3.97;;;2.13;;
6376;SDS011;3221;48.858;10.128;2023-08-07T10:48:56;4.10;;;2.10;;
6376;SDS011;3221;48.858;10.128;2023-08-07T10:51:27;2.80;;;2.07;;
6376;SDS011;3221;48.858;10.128;2023-08-07T10:53:59;2.20;;;1.77;;
6376;SDS011;3221;48.858;10.128;2023-08-07T10:56:34;2.00;;;1.80;;
6376;SDS011;3221;48.858;10.128;2023-08-07T10:59:11;2.80;;;1.70;;
6376;SDS011;3221;48.858;10.128;2023-08-07T11:04:13;3.20;;;2.00;;
6376;SDS011;3221;48.858;10.128;2023-08-07T11:06:41;2.10;;;1.83;;
6376;SDS011;3221;48.858;10.128;2023-08-07T11:09:09;2.70;;;2.10;;
6376;SDS011;3221;48.858;10.128;2023-08-07T11:11:47;3.40;;;1.87;;
6376;SDS011;3221;48.858;10.128;2023-08-07T11:14:15;4.57;;;2.10;;
6376;SDS011;3221;48.858;10.128;2023-08-07T11:16:44;3.40;;;2.00;;
6376;SDS011;3221;48.858;10.128;2023-08-07T11:19:16;3.33;;;1.93;;
6376;SDS011;3221;48.858;10.128;2023-08-07T11:21:44;2.83;;;2.00;;
6376;SDS011;3221;48.858;10.128;2023-08-07T11:24:14;2.23;;;1.70;;
6376;SDS011;3221;48.858;10.128;2023-08-07T11:26:43;3.97;;;1.77;;
6376;SDS011;3221;48.858;10.128;2023-08-07T11:29:10;3.10;;;1.87;;
6376;SDS011;3221;48.858;10.128;2023-08-07T11:31:42;3.77;;;2.17;;
6376;SDS011;3221;48.858;10.128;2023-08-07T11:34:10;3.93;;;2.23;;
6376;SDS011;3221;48.858;10.128;2023-08-07T11:36:41;2.90;;;2.10;;
6376;SDS011;3221;48.858;10.128;2023-08-07T11:39:09;3.00;;;2.33;;
6376;SDS011;3221;48.858;10.128;2023-08-07T11:41:36;2.60;;;2.10;;
6376;SDS011;3221;48.858;10.128;2023-08-07T11:44:03;2.93;;;2.13;;
6376;SDS011;3221;48.858;10.128;2023-08-07T11:46:31;4.90;;;2.50;;
6376;SDS011;3221;48.858;10.128;2023-08-07T11:48:58;3.33;;;2.20;;
6376;SDS011;3221;48.858;10.128;2023-08-07T11:51:25;3.27;;;2.17;;
6376;SDS011;3221;48.858;10.128;2023-08-07T11:53:52;3.40;;;2.40;;
6376;SDS011;3221;48.858;10.128;2023-08-07T11:56:22;2.90;;;2.13;;
6376;SDS011;3221;48.858;10.128;2023-08-07T11:58:51;3.57;;;2.33;;
6376;SDS011;3221;48.858;10.128;2023-08-07T12:01:20;3.80;;;2.13;;
6376;SDS011;3221;48.858;10.128;2023-08-07T12:03:52;2.50;;;2.30;;
6376;SDS011;3221;48.858;10.128;2023-08-07T12:06:22;2.80;;;2.00;;
6376;SDS011;3221;48.858;10.128;2023-08-07T12:08:53;2.63;;;2.10;;
6376;SDS011;3221;48.858;10.128;2023-08-07T12:11:22;3.03;;;2.30;;
6376;SDS011;3221;48.858;10.128;2023-08-07T12:13:49;3.60;;;2.33;;
6376;SDS011;3221;48.858;10.128;2023-08-07T12:16:17;2.00;;;1.80;;
6376;SDS011;3221;48.858;10.128;2023-08-07T12:18:45;3.70;;;2.00;;
6376;SDS011;3221;48.858;10.128;2023-08-07T12:21:14;4.80;;;2.20;;
6376;SDS011;3221;48.858;10.128;2023-08-07T12:23:43;3.63;;;2.00;;
6376;SDS011;3221;48.858;10.128;2023-08-07T12:26:10;3.20;;;2.47;;
6376;SDS011;3221;48.858;10.128;2023-08-07T12:28:37;3.60;;;1.90;;
6376;SDS011;3221;48.858;10.128;2023-08-07T12:31:04;3.17;;;2.30;;
6376;SDS011;3221;48.858;10.128;2023-08-07T12:33:33;4.03;;;2.33;;
6376;SDS011;3221;48.858;10.128;2023-08-07T12:36:00;2.67;;;2.20;;
6376;SDS011;3221;48.858;10.128;2023-08-07T12:38:28;2.63;;;2.37;;
6376;SDS011;3221;48.858;10.128;2023-08-07T12:40:55;3.23;;;2.20;;
6376;SDS011;3221;48.858;10.128;2023-08-07T12:43:23;2.67;;;2.20;;
6376;SDS011;3221;48.858;10.128;2023-08-07T12:45:50;2.27;;;2.00;;
6376;SDS011;3221;48.858;10.128;2023-08-07T12:48:39;3.07;;;2.30;;
6376;SDS011;3221;48.858;10.128;2023-08-07T12:51:06;3.90;;;2.50;;
6376;SDS011;3221;48.858;10.128;2023-08-07T12:53:33;2.93;;;2.20;;
6376;SDS011;3221;48.858;10.128;2023-08-07T12:56:00;3.27;;;2.40;;
6376;SDS011;3221;48.858;10.128;2023-08-07T12:58:28;2.97;;;2.07;;
6376;SDS011;3221;48.858;10.128;2023-08-07T13:00:56;2.87;;;2.00;;
6376;SDS011;3221;48.858;10.128;2023-08-07T13:03:23;3.13;;;2.10;;
6376;SDS011;3221;48.858;10.128;2023-08-07T13:05:50;2.20;;;2.00;;
6376;SDS011;3221;48.858;10.128;2023-08-07T13:08:17;3.83;;;2.03;;
6376;SDS011;3221;48.858;10.128;2023-08-07T13:10:44;6.00;;;2.50;;
6376;SDS011;3221;48.858;10.128;2023-08-07T13:13:15;5.03;;;2.70;;
6376;SDS011;3221;48.858;10.128;2023-08-07T13:15:41;6.00;;;2.37;;
6376;SDS011;3221;48.858;10.128;2023-08-07T13:18:08;2.60;;;2.40;;
6376;SDS011;3221;48.858;10.128;2023-08-07T13:20:35;3.07;;;2.47;;
6376;SDS011;3221;48.858;10.128;2023-08-07T13:23:02;4.77;;;2.30;;
6376;SDS011;3221;48.858;10.128;2023-08-07T13:25:32;2.90;;;2.27;;
6376;SDS011;3221;48.858;10.128;2023-08-07T13:27:59;3.40;;;2.50;;
6376;SDS011;3221;48.858;10.128;2023-08-07T13:30:27;3.07;;;2.60;;
6376;SDS011;3221;48.858;10.128;2023-08-07T13:33:02;6.37;;;2.80;;
6376;SDS011;3221;48.858;10.128;2023-08-07T13:35:29;2.90;;;2.60;;
6376;SDS011;3221;48.858;10.128;2023-08-07T13:37:56;5.23;;;2.67;;
6376;SDS011;3221;48.858;10.128;2023-08-07T13:40:22;4.30;;;2.70;;
6376;SDS011;3221;48.858;10.128;2023-08-07T13:42:49;3.30;;;2.30;;
6376;SDS011;3221;48.858;10.128;2023-08-07T13:45:16;2.67;;;1.90;;
6376;SDS011;3221;48.858;10.128;2023-08-07T13:47:43;2.53;;;2.10;;
6376;SDS011;3221;48.858;10.128;2023-08-07T13:50:10;3.60;;;2.33;;
6376;SDS011;3221;48.858;10.128;2023-08-07T13:52:39;6.07;;;2.50;;
6376;SDS011;3221;48.858;10.128;2023-08-07T13:55:06;5.10;;;2.50;;
6376;SDS011;3221;48.858;10.128;2023-08-07T13:57:35;3.63;;;2.50;;
6376;SDS011;3221;48.858;10.128;2023-08-07T14:00:02;2.83;;;2.60;;
6376;SDS011;3221;48.858;10.128;2023-08-07T14:02:31;3.57;;;2.77;;
6376;SDS011;3221;48.858;10.128;2023-08-07T14:05:01;3.23;;;2.67;;
6376;SDS011;3221;48.858;10.128;2023-08-07T14:07:28;2.77;;;2.50;;
6376;SDS011;3221;48.858;10.128;2023-08-07T14:09:55;4.83;;;3.03;;
6376;SDS011;3221;48.858;10.128;2023-08-07T14:12:23;3.97;;;3.40;;
6376;SDS011;3221;48.858;10.128;2023-08-07T14:14:50;6.37;;;3.60;;
6376;SDS011;3221;48.858;10.128;2023-08-07T14:17:17;5.90;;;3.40;;
6376;SDS011;3221;48.858;10.128;2023-08-07T14:19:44;7.10;;;3.83;;
6376;SDS011;3221;48.858;10.128;2023-08-07T14:22:11;7.10;;;3.53;;
6376;SDS011;3221;48.858;10.128;2023-08-07T14:24:38;4.53;;;3.43;;
6376;SDS011;3221;48.858;10.128;2023-08-07T14:27:05;4.23;;;3.80;;
6376;SDS011;3221;48.858;10.128;2023-08-07T14:29:33;4.03;;;3.17;;
6376;SDS011;3221;48.858;10.128;2023-08-07T14:32:00;3.20;;;2.90;;
6376;SDS011;3221;48.858;10.128;2023-08-07T14:34:31;3.47;;;3.10;;
6376;SDS011;3221;48.858;10.128;2023-08-07T14:36:58;4.97;;;3.13;;
6376;SDS011;3221;48.858;10.128;2023-08-07T14:39:30;2.80;;;2.60;;
6376;SDS011;3221;48.858;10.128;2023-08-07T14:41:58;5.27;;;3.20;;
6376;SDS011;3221;48.858;10.128;2023-08-07T14:44:25;4.87;;;3.20;;
6376;SDS011;3221;48.858;10.128;2023-08-07T14:46:54;3.10;;;2.80;;
6376;SDS011;3221;48.858;10.128;2023-08-07T14:49:21;3.60;;;2.63;;
6376;SDS011;3221;48.858;10.128;2023-08-07T14:51:51;3.63;;;2.83;;
6376;SDS011;3221;48.858;10.128;2023-08-07T14:54:18;4.67;;;2.73;;
6376;SDS011;3221;48.858;10.128;2023-08-07T14:56:45;3.23;;;2.70;;
6376;SDS011;3221;48.858;10.128;2023-08-07T14:59:12;3.47;;;2.80;;
6376;SDS011;3221;48.858;10.128;2023-08-07T15:01:40;4.23;;;3.00;;
6376;SDS011;3221;48.858;10.128;2023-08-07T15:04:07;4.27;;;3.23;;
6376;SDS011;3221;48.858;10.128;2023-08-07T15:06:36;4.00;;;3.27;;
6376;SDS011;3221;48.858;10.128;2023-08-07T15:09:03;5.87;;;3.30;;
6376;SDS011;3221;48.858;10.128;2023-08-07T15:11:30;3.60;;;3.30;;
6376;SDS011;3221;48.858;10.128;2023-08-07T15:13:57;3.83;;;3.47;;